Home > Products > Valid Products > TAF

000
FTUS46 KLOX 070328 AAA
TAFWJF
TAF AMD
KWJF 070328Z 0703/0724 23014KT P6SM SKC
     FM071100 VRB03KT P6SM SKC
     FM071900 24010KT P6SM SKC
     FM072100 24016KT P6SM SKC=



000
FTUS46 KLOX 070328 AAA
TAFPMD
TAF AMD
KPMD 070328Z 0703/0724 27014KT P6SM SKC
     FM070600 21008KT P6SM SKC
     FM071400 VRB03KT P6SM SKC
     FM072000 24014KT P6SM SKC=



000
FTUS46 KLOX 070327 AAA
TAFPRB
TAF AMD
KPRB 070327Z 0703/0724 32014G20KT P6SM SKC
     FM070500 33008KT P6SM SKC
     FM070800 VRB03KT P6SM SKC
     FM071100 VRB03KT P6SM OVC008
     FM071700 31008KT P6SM SKC
     FM072200 21012KT P6SM SKC=



000
FTUS46 KLOX 070327 AAA
TAFPRB
TAF AMD
KPRB 070327Z 0703/0724 32014G20KT P6SM SKC
     FM070500 33008KT P6SM SKC
     FM070800 VRB03KT P6SM SKC
     FM071100 VRB03KT P6SM OVC008
     FM071700 31008KT P6SM SKC
     FM072200 21012KT P6SM SKC=



000
FTUS46 KLOX 070319 AAB
TAFLGB
TAF AMD
KLGB 070319Z 0703/0724 30008KT P6SM BKN020
     FM070500 VRB03KT P6SM OVC015
     FM071800 VRB03KT P6SM BKN020
     FM072000 17008KT P6SM FEW025=



000
FTUS46 KLOX 070250 AAA
TAFLAX
TAF AMD
KLAX 070250Z 0703/0806 26012KT P6SM BKN015
     FM070500 VRB03KT P6SM OVC012
     FM071800 24006KT P6SM OVC015
     FM072100 27012KT P6SM BKN015
     FM080200 28010KT P6SM SCT015=



000
FTUS46 KLOX 070232 AAA
TAFLGB
TAF AMD
KLGB 070232Z 0703/0724 30008KT P6SM SKC
     FM070500 VRB03KT P6SM FEW015
     FM070700 VRB03KT P6SM OVC015
     FM071800 VRB03KT P6SM BKN020
     FM072000 17008KT P6SM FEW025=



000
FTUS46 KLOX 070230 AAA
TAFSMX
TAF AMD
KSMX 070230Z 0703/0724 30012KT P6SM SKC
     FM070400 32006KT P6SM SKC
     FM070600 VRB03KT P6SM OVC008
     FM071700 30010KT P6SM BKN010
     FM071900 30014KT P6SM SKC=



000
FTUS46 KLOX 062320
TAFPMD
TAF
KPMD 062320Z 0700/0724 25018G25KT P6SM SKC
     FM070300 25012KT P6SM SKC
     FM070600 21008KT P6SM SKC
     FM071400 VRB03KT P6SM SKC
     FM072000 24014KT P6SM SKC=



000
FTUS46 KLOX 062320
TAFWJF
TAF
KWJF 062320Z 0700/0724 23018G25KT P6SM SKC
     FM070400 24012KT P6SM SKC
     FM071100 VRB03KT P6SM SKC
     FM071900 24010KT P6SM SKC
     FM072100 24016KT P6SM SKC=



000
FTUS46 KLOX 062320
TAFVNY
TAF
KVNY 062320Z 0700/0724 14008KT P6SM SKC
     FM070300 VRB03KT P6SM SKC
     FM070800 VRB03KT P6SM OVC010
     FM071800 VRB03KT P6SM SKC
     FM072000 14008KT P6SM SKC=



000
FTUS46 KLOX 062320
TAFLGB
TAF
KLGB 062320Z 0700/0724 17008KT P6SM SKC
     FM070100 30008KT P6SM SKC
     FM070500 VRB03KT P6SM OVC015
     FM071800 VRB03KT P6SM BKN020
     FM072000 17008KT P6SM FEW025=



000
FTUS46 KLOX 062320
TAFSBA
TAF
KSBA 062320Z 0700/0724 24010KT P6SM SKC
     FM070200 30008KT P6SM SKC
     FM070800 VRB03KT P6SM SKC
     FM071700 17007KT P6SM SKC
     FM072100 24010KT P6SM SKC=



000
FTUS46 KLOX 062320
TAFPRB
TAF
KPRB 062320Z 0700/0724 33012KT P6SM SKC
     FM070800 VRB03KT P6SM SKC
     FM071100 VRB03KT P6SM OVC008
     FM071700 31008KT P6SM SKC
     FM072200 21012KT P6SM SKC=



000
FTUS46 KLOX 062320
TAFBUR
TAF
KBUR 062320Z 0700/0724 17008KT P6SM SKC
     FM070500 VRB03KT P6SM SKC
     FM070800 VRB03KT P6SM OVC010
     FM071900 17008KT P6SM SKC=



000
FTUS46 KLOX 062320
TAFSBP
TAF
KSBP 062320Z 0700/0724 30015KT P6SM SKC
     FM070200 31010KT P6SM SKC
     FM070600 30006KT P6SM OVC008
     FM071400 VRB03KT P6SM BKN010
     FM071700 29008KT P6SM SKC
     FM072000 31015KT P6SM SKC=



000
FTUS46 KLOX 062320
TAFLAX
TAF
KLAX 062320Z 0700/0806 26012KT P6SM BKN015
     FM070500 VRB03KT P6SM OVC012
     FM071800 24006KT P6SM OVC015
     FM072100 27012KT P6SM BKN015
     FM080200 28010KT P6SM SCT015=



000
FTUS46 KLOX 062320
TAFSMX
TAF
KSMX 062320Z 0700/0724 30014KT P6SM SKC
     FM070300 32006KT P6SM OVC008
     FM071700 30010KT P6SM BKN010
     FM071900 30014KT P6SM SKC=



000
FTUS46 KLOX 062204 AAB
TAFLAX
TAF AMD
KLAX 062204Z 0622/0724 27011KT P6SM OVC016
     FM070400 26007KT P6SM OVC015
     FM070900 VRB03KT P6SM OVC015
     FM071700 25006KT P6SM BKN020
     FM072000 26012KT P6SM BKN020=



000
FTUS46 KLOX 062106 AAB
TAFSBA
TAF AMD
KSBA 062106Z 0621/0718 22005KT P6SM OVC017
     FM062230 26010KT P6SM SCT018
     FM070100 29008KT P6SM SKC WS010/34025KT
     FM071100 VRB03KT P6SM SKC=



000
FTUS46 KLOX 062106 AAB
TAFSBA
TAF AMD
KSBA 062106Z 0621/0718 22005KT P6SM OVC017
     FM062230 26010KT P6SM SCT018
     FM070100 29008KT P6SM SKC WS010/34025KT
     FM071100 VRB03KT P6SM SKC=



000
FTUS46 KLOX 062058 AAA
TAFLAX
TAF AMD
KLAX 062058Z 0621/0724 27011KT P6SM OVC016
     FM062200 26012KT P6SM BKN020
      TEMPO 0701/0704 SCT020
     FM070400 26007KT P6SM OVC015
     FM070900 VRB03KT P6SM OVC015
     FM071700 25006KT P6SM BKN020
     FM072000 26012KT P6SM BKN020=



000
FTUS46 KLOX 061917 AAA
TAFSBA
TAF AMD
KSBA 061917Z 0619/0718 17007KT P6SM OVC015
     FM062100 26010KT P6SM SCT018
     FM070100 29008KT P6SM SKC WS010/34025KT
     FM071100 VRB03KT P6SM SKC=



000
FTUS46 KLOX 061917 AAA
TAFSMX
TAF AMD
KSMX 061917Z 0619/0718 30010KT P6SM BKN015
     FM061945 31010KT P6SM SCT015
     FM062100 31015KT P6SM SKC
     FM070300 31007KT P6SM BKN010
     FM070700 VRB03KT P6SM OVC008=



000
FTUS46 KLOX 061753 CCA
TAFLGB
TAF COR
KLGB 061753Z 0618/0718 21004KT P6SM OVC015
     FM062100 21007KT P6SM SCT025
     FM070000 29008KT P6SM SKC
     FM070400 VRB03KT P6SM OVC015=



000
FTUS46 KLOX 061753 CCA
TAFSBA
TAF COR
KSBA 061753Z 0618/0718 15007KT P6SM OVC009
     FM062100 26010KT P6SM SCT018
     FM070100 29008KT P6SM SKC WS010/34025KT
     FM071100 VRB03KT P6SM SKC=



000
FTUS46 KLOX 061746
TAFPMD
TAF
KPMD 061746Z 0618/0718 21007KT P6SM SKC
     FM061900 25012G20KT P6SM SKC
     FM062200 25018G28KT P6SM FEW080
     FM070400 25012KT P6SM SKC=



000
FTUS46 KLOX 061746
TAFSBP
TAF
KSBP 061746Z 0618/0718 29007KT P6SM SCT015
     FM062000 30015KT P6SM SKC
     FM070300 30007KT P6SM BKN010
     FM070700 VRB03KT P6SM OVC008=



000
FTUS46 KLOX 061746
TAFWJF
TAF
KWJF 061746Z 0618/0718 24008KT P6SM SKC
     FM061900 25015G25KT P6SM SKC
     FM062200 23020G30KT P6SM FEW080
     FM070400 24015KT P6SM SKC=



000
FTUS46 KLOX 061746
TAFPRB
TAF
KPRB 061746Z 0618/0718 29008KT P6SM SCT012
     FM062200 22010G18KT P6SM SKC
     FM070200 30007KT P6SM SKC
     FM071000 VRB03KT P6SM SKC=



000
FTUS46 KLOX 061746
TAFLAX
TAF
KLAX 061746Z 0618/0724 27007KT P6SM OVC015
     FM062200 26012KT P6SM BKN020
      TEMPO 0701/0704 SCT020
     FM070400 26007KT P6SM OVC015
     FM070900 VRB03KT P6SM OVC015
     FM071700 25006KT P6SM BKN020
     FM072000 26012KT P6SM BKN020=



000
FTUS46 KLOX 061746
TAFLGB
TAF
KLGB 061746Z 0618/0718 16006KT P6SM OVC022
     FM062100 21007KT P6SM SCT025
     FM070000 29008KT P6SM SKC
     FM070400 VRB03KT P6SM OVC015=



000
FTUS46 KLOX 061746
TAFSMX
TAF
KSMX 061746Z 0618/0718 VRB03KT P6SM OVC012
     FM061830 31007KT P6SM SCT015
     FM062100 31015KT P6SM SKC
     FM070300 31007KT P6SM BKN010
     FM070700 VRB03KT P6SM OVC008=



000
FTUS46 KLOX 061746
TAFVNY
TAF
KVNY 061746Z 0618/0718 VRB03KT P6SM OVC016
     FM061900 14010KT P6SM SKC
     FM070700 VRB03KT P6SM BKN010=



000
FTUS46 KLOX 061746
TAFBUR
TAF
KBUR 061746Z 0618/0718 VRB03KT P6SM OVC013
     FM061900 17010KT P6SM SKC
     FM070600 VRB03KT P6SM BKN010=



000
FTUS46 KLOX 061746
TAFSBA
TAF
KSBA 061746Z 0618/0718 21006KT P6SM OVC015
     FM062100 26010KT P6SM SCT018
     FM070100 29008KT P6SM SKC WS010/34025KT
     FM071100 VRB03KT P6SM SKC=



000
FTUS46 KLOX 061643 AAA
TAFPRB
TAF AMD
KPRB 061643Z 0617/0712 29008KT P6SM SCT012
     FM062100 22018G25KT P6SM SKC
     FM070200 30007KT P6SM SKC
     FM071000 VRB03KT P6SM BKN010=



000
FTUS46 KLOX 061643 AAA
TAFSBP
TAF AMD
KSBP 061643Z 0617/0712 29010KT P6SM SCT015
     FM061800 29007KT P6SM SCT015
     FM062000 30015KT P6SM SKC
     FM070300 30007KT P6SM BKN010
     FM070800 VRB03KT P6SM OVC008=



000
FTUS46 KLOX 061433 AAB
TAFSBA
TAF AMD
KSBA 061433Z 0615/0712 08004KT P6SM OVC009
     FM061600 VRB03KT P6SM OVC010
     FM061800 21006KT P6SM OVC015
     FM062100 26010KT P6SM SCT018
     FM070100 29008KT P6SM SKC WS010/34025KT
     FM071100 VRB03KT P6SM BKN010=



000
FTUS46 KLOX 061433 AAB
TAFSBA
TAF AMD
KSBA 061433Z 0615/0712 08004KT P6SM OVC009
     FM061600 VRB03KT P6SM OVC010
     FM061800 21006KT P6SM OVC015
     FM062100 26010KT P6SM SCT018
     FM070100 29008KT P6SM SKC WS010/34025KT
     FM071100 VRB03KT P6SM BKN010=



000
FTUS46 KLOX 061432 AAA
TAFLAX
TAF AMD
KLAX 061432Z 0615/0718 31005KT P6SM OVC012
     FM061600 27007KT P6SM OVC015
     FM062200 26012KT P6SM BKN020
     FM070300 26007KT P6SM OVC015
     FM070900 VRB03KT P6SM OVC015
     FM071700 25006KT P6SM BKN020=



000
FTUS46 KLOX 061312 AAA
TAFSBA
TAF AMD
KSBA 061312Z 0613/0712 VRB03KT 5SM BR OVC005
     FM061600 VRB03KT P6SM OVC010
     FM061800 21006KT P6SM OVC015
     FM062100 26010KT P6SM SCT018
     FM070100 29008KT P6SM SKC WS010/34025KT
     FM071100 VRB03KT P6SM BKN010=



000
FTUS46 KLOX 061123
TAFLGB
TAF
KLGB 061123Z 0612/0712 VRB03KT P6SM OVC015
     FM061500 16006KT P6SM OVC022
     FM062100 21007KT P6SM SCT025
     FM070000 29008KT P6SM SKC
     FM070400 VRB03KT P6SM OVC015=



000
FTUS46 KLOX 061123
TAFSBP
TAF
KSBP 061123Z 0612/0712 VRB03KT P6SM OVC010
     FM061800 29007KT P6SM SCT015
     FM062000 30015KT P6SM SKC
     FM070300 30007KT P6SM BKN010
     FM070800 VRB03KT P6SM OVC008=



000
FTUS46 KLOX 061123
TAFSMX
TAF
KSMX 061123Z 0612/0712 VRB03KT P6SM OVC009
     FM061500 VRB03KT P6SM OVC012
     FM061830 31007KT P6SM SCT015
     FM062100 31015KT P6SM SKC
     FM070300 31007KT P6SM BKN010
     FM070700 VRB03KT P6SM OVC008=



000
FTUS46 KLOX 061123
TAFPRB
TAF
KPRB 061123Z 0612/0712 VRB03KT P6SM OVC009
     FM061700 21008KT P6SM SKC
     FM062100 22018G25KT P6SM SKC
     FM070200 30007KT P6SM SKC
     FM071000 VRB03KT P6SM BKN010=



000
FTUS46 KLOX 061123
TAFBUR
TAF
KBUR 061123Z 0612/0712 VRB03KT P6SM OVC010
     FM061900 17010KT P6SM SKC
     FM070600 VRB03KT P6SM BKN010=



000
FTUS46 KLOX 061123
TAFWJF
TAF
KWJF 061123Z 0612/0712 24007KT P6SM SKC
     FM061800 24012G18KT P6SM SKC
     FM062200 23020G30KT P6SM SKC
     FM070400 24015KT P6SM SKC=



000
FTUS46 KLOX 061123
TAFPMD
TAF
KPMD 061123Z 0612/0712 21007KT P6SM SKC
     FM061900 25012G20KT P6SM SKC
     FM062200 25018G28KT P6SM SKC
     FM070400 25012KT P6SM SKC=



000
FTUS46 KLOX 061123
TAFVNY
TAF
KVNY 061123Z 0612/0712 14006KT P6SM OVC010
     FM061800 14010KT P6SM SKC
     FM070700 VRB03KT P6SM BKN010=



000
FTUS46 KLOX 061123
TAFSBP
TAF
KSBP 061123Z 0612/0712 VRB03KT P6SM OVC010
     FM061800 29007KT P6SM SCT015
     FM062000 30015KT P6SM SKC
     FM070300 30007KT P6SM BKN010
     FM070800 VRB03KT P6SM OVC008=



000
FTUS46 KLOX 061123
TAFLAX
TAF
KLAX 061123Z 0612/0718 VRB03KT P6SM OVC015
     FM061600 27007KT P6SM OVC015
     FM062200 26012KT P6SM BKN020
     FM070300 26007KT P6SM OVC015
     FM070900 VRB03KT P6SM OVC015
     FM071700 25006KT P6SM BKN020=



000
FTUS46 KLOX 061123
TAFSBA
TAF
KSBA 061123Z 0612/0712 VRB03KT 6SM BR OVC005
     FM061600 VRB03KT P6SM OVC010
     FM061800 21006KT P6SM OVC015
     FM062100 26010KT P6SM SCT018
     FM070100 29008KT P6SM SKC WS010/34025KT
     FM071100 VRB03KT P6SM BKN010=



000
FTUS46 KLOX 061123
TAFLGB
TAF
KLGB 061123Z 0612/0712 VRB03KT P6SM OVC015
     FM061500 16006KT P6SM OVC022
     FM062100 21007KT P6SM SCT025
     FM070000 29008KT P6SM SKC
     FM070400 VRB03KT P6SM OVC015=



000
FTUS46 KLOX 061123
TAFPMD
TAF
KPMD 061123Z 0612/0712 21007KT P6SM SKC
     FM061900 25012G20KT P6SM SKC
     FM062200 25018G28KT P6SM SKC
     FM070400 25012KT P6SM SKC=



000
FTUS46 KLOX 061123
TAFPRB
TAF
KPRB 061123Z 0612/0712 VRB03KT P6SM OVC009
     FM061700 21008KT P6SM SKC
     FM062100 22018G25KT P6SM SKC
     FM070200 30007KT P6SM SKC
     FM071000 VRB03KT P6SM BKN010=



000
FTUS46 KLOX 061123
TAFWJF
TAF
KWJF 061123Z 0612/0712 24007KT P6SM SKC
     FM061800 24012G18KT P6SM SKC
     FM062200 23020G30KT P6SM SKC
     FM070400 24015KT P6SM SKC=



000
FTUS46 KLOX 061123
TAFVNY
TAF
KVNY 061123Z 0612/0712 14006KT P6SM OVC010
     FM061800 14010KT P6SM SKC
     FM070700 VRB03KT P6SM BKN010=



000
FTUS46 KLOX 061123
TAFSMX
TAF
KSMX 061123Z 0612/0712 VRB03KT P6SM OVC009
     FM061500 VRB03KT P6SM OVC012
     FM061830 31007KT P6SM SCT015
     FM062100 31015KT P6SM SKC
     FM070300 31007KT P6SM BKN010
     FM070700 VRB03KT P6SM OVC008=



000
FTUS46 KLOX 061123
TAFBUR
TAF
KBUR 061123Z 0612/0712 VRB03KT P6SM OVC010
     FM061900 17010KT P6SM SKC
     FM070600 VRB03KT P6SM BKN010=



000
FTUS46 KLOX 061123
TAFSBA
TAF
KSBA 061123Z 0612/0712 VRB03KT 6SM BR OVC005
     FM061600 VRB03KT P6SM OVC010
     FM061800 21006KT P6SM OVC015
     FM062100 26010KT P6SM SCT018
     FM070100 29008KT P6SM SKC WS010/34025KT
     FM071100 VRB03KT P6SM BKN010=



000
FTUS46 KLOX 061123
TAFLAX
TAF
KLAX 061123Z 0612/0718 VRB03KT P6SM OVC015
     FM061600 27007KT P6SM OVC015
     FM062200 26012KT P6SM BKN020
     FM070300 26007KT P6SM OVC015
     FM070900 VRB03KT P6SM OVC015
     FM071700 25006KT P6SM BKN020=



000
FTUS46 KLOX 061101 AAB
TAFVNY
TAF AMD
KVNY 061101Z 0611/0706 14006KT P6SM OVC010
     FM061800 14010KT P6SM SKC
     FM070500 VRB03KT P6SM SKC=



000
FTUS46 KLOX 061101 AAB
TAFVNY
TAF AMD
KVNY 061101Z 0611/0706 14006KT P6SM OVC010
     FM061800 14010KT P6SM SKC
     FM070500 VRB03KT P6SM SKC=



000
FTUS46 KLOX 060938 AAA
TAFBUR
TAF AMD
KBUR 060938Z 0610/0706 17006KT P6SM BKN012
     FM061200 VRB03KT 6SM BR OVC009
     FM061700 13006KT 6SM BR BKN012
     FM061900 18010KT P6SM SKC
     FM070500 VRB03KT P6SM SKC=



000
FTUS46 KLOX 060938 AAA
TAFBUR
TAF AMD
KBUR 060938Z 0610/0706 17006KT P6SM BKN012
     FM061200 VRB03KT 6SM BR OVC009
     FM061700 13006KT 6SM BR BKN012
     FM061900 18010KT P6SM SKC
     FM070500 VRB03KT P6SM SKC=



000
FTUS46 KLOX 060938 AAA
TAFSBP
TAF AMD
KSBP 060938Z 0610/0706 30007KT P6SM BKN012
     FM061100 VRB03KT P6SM OVC008
     FM061600 VRB03KT P6SM BKN012
     FM061800 29007KT P6SM SCT015
     FM062000 30015KT P6SM SKC
     FM070300 30007KT P6SM BKN010=



000
FTUS46 KLOX 060938 AAA
TAFSBP
TAF AMD
KSBP 060938Z 0610/0706 30007KT P6SM BKN012
     FM061100 VRB03KT P6SM OVC008
     FM061600 VRB03KT P6SM BKN012
     FM061800 29007KT P6SM SCT015
     FM062000 30015KT P6SM SKC
     FM070300 30007KT P6SM BKN010=



000
FTUS46 KLOX 060856 AAA
TAFLAX
TAF AMD
KLAX 060856Z 0609/0712 VRB03KT P6SM OVC015
     FM061600 27007KT P6SM OVC015
     FM062200 26012KT P6SM BKN020
     FM070300 26007KT P6SM OVC015
     FM070900 VRB03KT P6SM OVC015=



000
FTUS46 KLOX 060830 AAB
TAFSBA
TAF AMD
KSBA 060830Z 0609/0706 VRB03KT 6SM BR OVC004
     FM061400 VRB03KT P6SM OVC009
     FM061600 VRB03KT P6SM OVC012
     FM061800 21006KT P6SM OVC015
     FM062100 26010KT P6SM SCT018
     FM070100 29008KT P6SM SKC WS010/34025KT=



000
FTUS46 KLOX 060613 AAA
TAFSBA
TAF AMD
KSBA 060613Z 0606/0706 VRB03KT P6SM BKN007
     FM061100 VRB03KT P6SM OVC009
     FM061400 VRB03KT P6SM OVC012
     FM061800 21006KT P6SM OVC015
     FM062100 26010KT P6SM SCT018
     FM070100 29008KT P6SM SKC WS010/34025KT=



000
FTUS46 KLOX 060613 AAA
TAFSBA
TAF AMD
KSBA 060613Z 0606/0706 VRB03KT P6SM BKN007
     FM061100 VRB03KT P6SM OVC009
     FM061400 VRB03KT P6SM OVC012
     FM061800 21006KT P6SM OVC015
     FM062100 26010KT P6SM SCT018
     FM070100 29008KT P6SM SKC WS010/34025KT=



000
FTUS46 KLOX 060613 AAA
TAFVNY
TAF AMD
KVNY 060613Z 0606/0706 14006KT P6SM OVC009
     FM061100 VRB03KT 6SM BR OVC009
     FM061700 12006KT 6SM BR BKN012
     FM061900 14010KT P6SM SKC
     FM070500 VRB03KT P6SM SKC=



000
FTUS46 KLOX 060613 AAA
TAFVNY
TAF AMD
KVNY 060613Z 0606/0706 14006KT P6SM OVC009
     FM061100 VRB03KT 6SM BR OVC009
     FM061700 12006KT 6SM BR BKN012
     FM061900 14010KT P6SM SKC
     FM070500 VRB03KT P6SM SKC=



000
FTUS46 KLOX 060529
TAFSBP
TAF
KSBP 060529Z 0606/0706 30007KT P6SM BKN012
     FM060900 VRB03KT P6SM OVC008
     FM061600 VRB03KT P6SM BKN012
     FM061800 29007KT P6SM SCT015
     FM062000 30015KT P6SM SKC
     FM070300 30007KT P6SM BKN010=



000
FTUS46 KLOX 060529
TAFSBA
TAF
KSBA 060529Z 0606/0706 VRB03KT P6SM SKC
     FM060700 VRB03KT P6SM OVC009
     FM061400 VRB03KT P6SM OVC012
     FM061800 21006KT P6SM OVC015
     FM062100 26010KT P6SM SCT018
     FM070100 29008KT P6SM SKC WS010/34025KT=



000
FTUS46 KLOX 060529
TAFPRB
TAF
KPRB 060529Z 0606/0706 VRB03KT P6SM SKC
     FM061100 VRB03KT P6SM OVC010
     FM061700 21008KT P6SM SKC
     FM062100 22018G25KT P6SM SKC
     FM070200 30007KT P6SM SKC=



000
FTUS46 KLOX 060529
TAFLAX
TAF
KLAX 060529Z 0606/0712 28008KT P6SM OVC012
     FM060900 VRB03KT P6SM OVC015
     FM061600 27007KT P6SM OVC015
     FM062200 26012KT P6SM BKN020
     FM070300 26007KT P6SM OVC015
     FM070900 VRB03KT P6SM OVC015=



000
FTUS46 KLOX 060529
TAFSMX
TAF
KSMX 060529Z 0606/0706 VRB03KT P6SM OVC010
     FM060900 VRB03KT P6SM OVC008
     FM061600 VRB03KT P6SM OVC012
     FM061830 31007KT P6SM SCT015
     FM062000 31015KT P6SM SKC
     FM070300 31007KT P6SM BKN010=



000
FTUS46 KLOX 060529
TAFLGB
TAF
KLGB 060529Z 0606/0706 VRB03KT P6SM OVC018
     FM061500 16006KT P6SM OVC022
     FM062100 21007KT P6SM SCT025
     FM070000 29008KT P6SM SKC
     FM070400 VRB03KT P6SM BKN015=



000
FTUS46 KLOX 060529
TAFPMD
TAF
KPMD 060529Z 0606/0706 23008KT P6SM SKC
     FM061900 25012G20KT P6SM SKC
     FM062200 25018G28KT P6SM SKC
     FM070400 25012KT P6SM SKC=



000
FTUS46 KLOX 060529
TAFBUR
TAF
KBUR 060529Z 0606/0706 17006KT P6SM BKN012
     FM060900 VRB03KT 6SM BR OVC009
     FM061700 13006KT 6SM BR BKN012
     FM061900 18010KT P6SM SKC
     FM070500 VRB03KT P6SM SKC=



000
FTUS46 KLOX 060529
TAFWJF
TAF
KWJF 060529Z 0606/0706 24009KT P6SM SKC
     FM061800 24012G18KT P6SM SKC
     FM062200 23020G30KT P6SM SKC
     FM070400 24015KT P6SM SKC=



000
FTUS46 KLOX 060529
TAFVNY
TAF
KVNY 060529Z 0606/0706 17006KT P6SM BKN012
     FM060900 VRB03KT 6SM BR OVC009
     FM061700 12006KT 6SM BR BKN012
     FM061900 14010KT P6SM SKC
     FM070500 VRB03KT P6SM SKC=



000
FTUS46 KLOX 060529
TAFSBP
TAF
KSBP 060529Z 0606/0706 30007KT P6SM BKN012
     FM060900 VRB03KT P6SM OVC008
     FM061600 VRB03KT P6SM BKN012
     FM061800 29007KT P6SM SCT015
     FM062000 30015KT P6SM SKC
     FM070300 30007KT P6SM BKN010=



000
FTUS46 KLOX 060529
TAFPRB
TAF
KPRB 060529Z 0606/0706 VRB03KT P6SM SKC
     FM061100 VRB03KT P6SM OVC010
     FM061700 21008KT P6SM SKC
     FM062100 22018G25KT P6SM SKC
     FM070200 30007KT P6SM SKC=



000
FTUS46 KLOX 060529
TAFSBA
TAF
KSBA 060529Z 0606/0706 VRB03KT P6SM SKC
     FM060700 VRB03KT P6SM OVC009
     FM061400 VRB03KT P6SM OVC012
     FM061800 21006KT P6SM OVC015
     FM062100 26010KT P6SM SCT018
     FM070100 29008KT P6SM SKC WS010/34025KT=



000
FTUS46 KLOX 060529
TAFSMX
TAF
KSMX 060529Z 0606/0706 VRB03KT P6SM OVC010
     FM060900 VRB03KT P6SM OVC008
     FM061600 VRB03KT P6SM OVC012
     FM061830 31007KT P6SM SCT015
     FM062000 31015KT P6SM SKC
     FM070300 31007KT P6SM BKN010=



000
FTUS46 KLOX 060529
TAFVNY
TAF
KVNY 060529Z 0606/0706 17006KT P6SM BKN012
     FM060900 VRB03KT 6SM BR OVC009
     FM061700 12006KT 6SM BR BKN012
     FM061900 14010KT P6SM SKC
     FM070500 VRB03KT P6SM SKC=



000
FTUS46 KLOX 060529
TAFLGB
TAF
KLGB 060529Z 0606/0706 VRB03KT P6SM OVC018
     FM061500 16006KT P6SM OVC022
     FM062100 21007KT P6SM SCT025
     FM070000 29008KT P6SM SKC
     FM070400 VRB03KT P6SM BKN015=



000
FTUS46 KLOX 060529
TAFWJF
TAF
KWJF 060529Z 0606/0706 24009KT P6SM SKC
     FM061800 24012G18KT P6SM SKC
     FM062200 23020G30KT P6SM SKC
     FM070400 24015KT P6SM SKC=



000
FTUS46 KLOX 060529
TAFPMD
TAF
KPMD 060529Z 0606/0706 23008KT P6SM SKC
     FM061900 25012G20KT P6SM SKC
     FM062200 25018G28KT P6SM SKC
     FM070400 25012KT P6SM SKC=



000
FTUS46 KLOX 060529
TAFLAX
TAF
KLAX 060529Z 0606/0712 28008KT P6SM OVC012
     FM060900 VRB03KT P6SM OVC015
     FM061600 27007KT P6SM OVC015
     FM062200 26012KT P6SM BKN020
     FM070300 26007KT P6SM OVC015
     FM070900 VRB03KT P6SM OVC015=



000
FTUS46 KLOX 060529
TAFBUR
TAF
KBUR 060529Z 0606/0706 17006KT P6SM BKN012
     FM060900 VRB03KT 6SM BR OVC009
     FM061700 13006KT 6SM BR BKN012
     FM061900 18010KT P6SM SKC
     FM070500 VRB03KT P6SM SKC=



000
FTUS46 KLOX 060322 AAA
TAFLAX
TAF AMD
KLAX 060322Z 0603/0706 28008KT P6SM OVC012
     FM060700 VRB03KT P6SM OVC012
     FM061600 27007KT P6SM OVC015
     FM062000 26012KT P6SM BKN018
     FM062200 26012KT P6SM SCT020
     FM070100 26012KT P6SM BKN015
     FM070400 26007KT P6SM OVC012=



000
FTUS46 KLOX 060322 AAA
TAFLAX
TAF AMD
KLAX 060322Z 0603/0706 28008KT P6SM OVC012
     FM060700 VRB03KT P6SM OVC012
     FM061600 27007KT P6SM OVC015
     FM062000 26012KT P6SM BKN018
     FM062200 26012KT P6SM SCT020
     FM070100 26012KT P6SM BKN015
     FM070400 26007KT P6SM OVC012=



000
FTUS46 KLOX 060203 AAB
TAFLGB
TAF AMD
KLGB 060203Z 0602/0624 31008KT P6SM BKN021
     FM060500 VRB03KT P6SM OVC017
     FM061600 16005KT P6SM OVC020
     FM062000 14006KT P6SM BKN021
     FM062200 21007KT P6SM SCT015=



000
FTUS46 KLOX 060202 AAA
TAFSMX
TAF AMD
KSMX 060202Z 0602/0624 32011KT P6SM SKC
     FM060400 32007KT P6SM BKN012
     FM060600 VRB03KT P6SM OVC008
     FM061600 VRB03KT P6SM OVC012
     FM061830 31005KT P6SM SCT017
     FM062000 31013KT P6SM SKC=



000
FTUS46 KLOX 060152 AAA
TAFWJF
TAF AMD
KWJF 060152Z 0602/0624 29012KT P6SM SKC
     FM060400 25014KT P6SM SKC
     FM060600 24008KT P6SM SKC
     FM061000 VRB05KT P6SM SKC
     FM061500 24012KT P6SM SKC
     FM061800 24014G22KT P6SM SKC
     FM062100 23020G30KT P6SM SKC=



000
FTUS46 KLOX 060148 AAA
TAFPMD
TAF AMD
KPMD 060148Z 0602/0624 30016G21KT P6SM SKC
     FM060300 24012KT P6SM SKC
     FM060800 20007KT P6SM SKC
     FM061400 VRB03KT P6SM SKC
     FM061600 24008KT P6SM SKC
     FM061900 25012G20KT P6SM SKC
     FM062200 25018G28KT P6SM SKC=



000
FTUS46 KLOX 060148 AAA
TAFPMD
TAF AMD
KPMD 060148Z 0602/0624 30016G21KT P6SM SKC
     FM060300 24012KT P6SM SKC
     FM060800 20007KT P6SM SKC
     FM061400 VRB03KT P6SM SKC
     FM061600 24008KT P6SM SKC
     FM061900 25012G20KT P6SM SKC
     FM062200 25018G28KT P6SM SKC=



000
FTUS46 KLOX 060147 AAA
TAFLGB
TAF AMD
KLGB 060147Z 0602/0624 31010KT P6SM BKN018
     FM060500 VRB03KT P6SM OVC015
     FM061600 16005KT P6SM OVC020
     FM062000 14006KT P6SM BKN021
     FM062200 21007KT P6SM SCT015=



000
FTUS46 KLOX 060147 AAA
TAFPRB
TAF AMD
KPRB 060147Z 0602/0624 19017G24KT P6SM SKC
     FM060300 21010KT P6SM SKC
     FM060600 VRB03KT P6SM SKC
     FM061100 VRB03KT P6SM OVC010
     FM061700 21008KT P6SM SKC
     FM062100 24018G25KT P6SM SKC=



000
FTUS46 KLOX 060147 AAA
TAFPRB
TAF AMD
KPRB 060147Z 0602/0624 19017G24KT P6SM SKC
     FM060300 21010KT P6SM SKC
     FM060600 VRB03KT P6SM SKC
     FM061100 VRB03KT P6SM OVC010
     FM061700 21008KT P6SM SKC
     FM062100 24018G25KT P6SM SKC=



000
FTUS46 KLOX 060147 AAA
TAFLGB
TAF AMD
KLGB 060147Z 0602/0624 31010KT P6SM BKN018
     FM060500 VRB03KT P6SM OVC015
     FM061600 16005KT P6SM OVC020
     FM062000 14006KT P6SM BKN021
     FM062200 21007KT P6SM SCT015=



000
FTUS46 KLOX 052347
TAFVNY
TAF
KVNY 052347Z 0600/0624 15010KT P6SM SKC
     FM060300 VRB03KT P6SM SKC
     FM060800 VRB03KT P6SM OVC010
     FM061200 VRB03KT 5SM BR OVC008
     FM061700 13006KT 5SM BR OVC012
     FM061900 16007KT P6SM FEW018=



000
FTUS46 KLOX 052347
TAFPMD
TAF
KPMD 052347Z 0600/0624 26018G24KT P6SM SKC
     FM060300 24012KT P6SM SKC
     FM060800 20007KT P6SM SKC
     FM061400 VRB03KT P6SM SKC
     FM061600 24008KT P6SM SKC
     FM061900 25012G20KT P6SM SKC
     FM062200 25018G28KT P6SM SKC=



000
FTUS46 KLOX 052347
TAFLGB
TAF
KLGB 052347Z 0600/0624 20007KT P6SM FEW018
     FM060100 30010KT P6SM SKC
     FM060500 VRB03KT P6SM OVC015
     FM061600 16005KT P6SM OVC020
     FM062000 14006KT P6SM BKN021
     FM062200 21007KT P6SM SCT015=



000
FTUS46 KLOX 052347
TAFSBA
TAF
KSBA 052347Z 0600/0624 26010KT P6SM SCT018
      TEMPO 0600/0601 BKN015
     FM060100 25008KT P6SM SKC
     FM060500 VRB03KT P6SM OVC008
     FM061100 VRB03KT P6SM OVC012
     FM061800 21006KT P6SM OVC015
     FM062100 26010KT P6SM SCT018=



000
FTUS46 KLOX 052347
TAFLAX
TAF
KLAX 052347Z 0600/0706 26014KT P6SM BKN016
     FM060300 25008KT P6SM OVC015
     FM060700 VRB03KT P6SM OVC012
     FM061600 27007KT P6SM OVC015
     FM062000 26012KT P6SM BKN018
     FM062200 26012KT P6SM SCT020
     FM070100 26012KT P6SM BKN015
     FM070400 26007KT P6SM OVC012=



000
FTUS46 KLOX 052347
TAFWJF
TAF
KWJF 052347Z 0600/0624 24017G25KT P6SM SKC
     FM060200 25014KT P6SM SKC
     FM060500 24008KT P6SM SKC
     FM061000 VRB05KT P6SM SKC
     FM061500 24012KT P6SM SKC
     FM061800 24014G22KT P6SM SKC
     FM062100 23020G30KT P6SM SKC=



000
FTUS46 KLOX 052347
TAFPRB
TAF
KPRB 052347Z 0600/0624 22020G28KT P6SM SKC
     FM060300 21010KT P6SM SKC
     FM060600 VRB03KT P6SM SKC
     FM061100 VRB03KT P6SM OVC010
     FM061700 21008KT P6SM SKC
     FM062100 24018G25KT P6SM SKC=



000
FTUS46 KLOX 052347
TAFBUR
TAF
KBUR 052347Z 0600/0624 18010KT P6SM SKC
     FM060200 13006KT P6SM SKC
     FM060800 VRB03KT 5SM BR OVC010
     FM061700 13006KT 6SM BR BKN012
     FM061900 17006KT 6SM HZ SKC
     FM062300 18011KT P6SM SKC=



000
FTUS46 KLOX 052347
TAFSMX
TAF
KSMX 052347Z 0600/0624 32013KT P6SM SKC
     FM060200 32007KT P6SM BKN012
     FM060400 VRB03KT P6SM OVC008
     FM061600 VRB03KT P6SM OVC012
     FM061830 31005KT P6SM SCT017
     FM062000 31013KT P6SM SKC=



000
FTUS46 KLOX 052347
TAFSBP
TAF
KSBP 052347Z 0600/0624 30013KT P6SM SKC
     FM060300 32007KT P6SM SKC
     FM060500 VRB03KT P6SM OVC012
     FM060900 VRB03KT P6SM OVC008
     FM061600 VRB03KT P6SM BKN012
     FM061700 14005KT P6SM SCT017
     FM062000 31013KT P6SM SKC=



000
FTUS46 KLOX 052050 AAB
TAFSBA
TAF AMD
KSBA 052050Z 0521/0618 23006KT P6SM OVC012
     FM052200 24012KT P6SM SCT015
     FM060100 25008KT P6SM SKC
     FM060500 VRB03KT P6SM OVC008
     FM061100 VRB03KT P6SM OVC012
     FM061700 15007KT P6SM OVC015=



000
FTUS46 KLOX 052050 AAB
TAFLAX
TAF AMD
KLAX 052050Z 0521/0624 24008KT P6SM BKN025
     FM052130 26014KT P6SM SCT025
     FM060200 25008KT P6SM OVC015
     FM060700 VRB03KT P6SM OVC012
     FM061600 27007KT P6SM OVC018
     FM062000 26012KT P6SM SCT020=



000
FTUS46 KLOX 052050 AAB
TAFSBA
TAF AMD
KSBA 052050Z 0521/0618 23006KT P6SM OVC012
     FM052200 24012KT P6SM SCT015
     FM060100 25008KT P6SM SKC
     FM060500 VRB03KT P6SM OVC008
     FM061100 VRB03KT P6SM OVC012
     FM061700 15007KT P6SM OVC015=



000
FTUS46 KLOX 052050 AAB
TAFLAX
TAF AMD
KLAX 052050Z 0521/0624 24008KT P6SM BKN025
     FM052130 26014KT P6SM SCT025
     FM060200 25008KT P6SM OVC015
     FM060700 VRB03KT P6SM OVC012
     FM061600 27007KT P6SM OVC018
     FM062000 26012KT P6SM SCT020=



000
FTUS46 KLOX 052007 AAA
TAFLAX
TAF AMD
KLAX 052007Z 0520/0624 24008KT P6SM BKN025
     FM052130 26014KT P6SM SCT025
     FM060200 25008KT P6SM OVC015
     FM060700 VRB03KT P6SM OVC012
     FM061600 27007KT P6SM OVC018
     FM062000 26012KT P6SM SCT020=



000
FTUS46 KLOX 052007 AAA
TAFLGB
TAF AMD
KLGB 052007Z 0520/0618 16006KT P6SM OVC025
     FM052130 17008KT P6SM SKC
     FM060100 30010KT P6SM SKC
     FM060500 VRB03KT P6SM OVC015
     FM061600 16005KT P6SM OVC020=



000
FTUS46 KLOX 052007 AAA
TAFSBA
TAF AMD
KSBA 052007Z 0520/0618 23006KT P6SM OVC009
     FM052200 24012KT P6SM SCT015
     FM060100 25008KT P6SM SKC
     FM060500 VRB03KT P6SM OVC008
     FM061100 VRB03KT P6SM OVC012
     FM061700 15007KT P6SM OVC015=



000
FTUS46 KLOX 052007 AAA
TAFWJF
TAF AMD
KWJF 052007Z 0520/0618 24015G25KT P6SM SKC
     FM052200 24020G30KT P6SM SKC
     FM060200 25014KT P6SM SKC
     FM060500 24008KT P6SM SKC
     FM061000 VRB03KT P6SM SKC=



000
FTUS46 KLOX 052007 AAA
TAFPMD
TAF AMD
KPMD 052007Z 0520/0618 23014G22KT P6SM SKC
     FM052200 24018G26KT P6SM SKC
     FM060300 24012KT P6SM SKC
     FM060800 20007KT P6SM SKC
     FM061400 VRB03KT P6SM SKC=



000
FTUS46 KLOX 051730
TAFLGB
TAF
KLGB 051730Z 0518/0618 16006KT P6SM OVC018
     FM051900 17008KT P6SM SKC
     FM060100 30010KT P6SM SKC
     FM060500 VRB03KT P6SM OVC015
     FM061600 16005KT P6SM OVC020=



000
FTUS46 KLOX 051730
TAFBUR
TAF
KBUR 051730Z 0518/0618 VRB03KT 5SM HZ FEW010
     FM051900 17010KT P6SM SKC
     FM060200 13006KT P6SM SKC
     FM060800 VRB03KT 5SM BR OVC010
     FM061700 13006KT 6SM BR OVC012=



000
FTUS46 KLOX 051730
TAFSBA
TAF
KSBA 051730Z 0518/0618 VRB03KT P6SM OVC008
     FM051900 14007KT P6SM OVC010
     FM052100 24012KT P6SM SCT015
     FM060100 25008KT P6SM SKC
     FM060500 VRB03KT P6SM OVC008
     FM061100 VRB03KT P6SM OVC012
     FM061700 15007KT P6SM OVC015=



000
FTUS46 KLOX 051730
TAFWJF
TAF
KWJF 051730Z 0518/0618 24012KT P6SM SKC
     FM052100 24020G30KT P6SM SKC
     FM060200 25014KT P6SM SKC
     FM060500 24008KT P6SM SKC
     FM061000 VRB03KT P6SM SKC=



000
FTUS46 KLOX 051730
TAFVNY
TAF
KVNY 051730Z 0518/0618 VRB03KT 6SM HZ FEW012
     FM051900 14010KT P6SM SKC
     FM060300 VRB03KT P6SM SKC
     FM060800 VRB03KT P6SM OVC010
     FM061700 13006KT P6SM OVC012=



000
FTUS46 KLOX 051730
TAFPRB
TAF
KPRB 051730Z 0518/0618 22012KT P6SM SKC
     FM052100 22020G28KT P6SM SKC
     FM060300 21010KT P6SM SKC
     FM060600 VRB03KT P6SM SKC
     FM061100 VRB03KT P6SM OVC010
     FM061700 21008KT P6SM SKC=



000
FTUS46 KLOX 051730
TAFSBP
TAF
KSBP 051730Z 0518/0618 VRB03KT P6SM SCT015
     FM052000 30012KT P6SM SKC
     FM060300 32007KT P6SM SKC
     FM060500 VRB03KT P6SM OVC012
     FM060900 VRB03KT P6SM OVC008
     FM061600 VRB03KT P6SM BKN012=



000
FTUS46 KLOX 051730
TAFSMX
TAF
KSMX 051730Z 0518/0618 VRB03KT P6SM BKN010
     FM051900 30008KT P6SM FEW010
     FM052100 31014KT P6SM SKC
     FM060200 32007KT P6SM BKN012
     FM060400 VRB03KT P6SM OVC008
     FM061600 VRB03KT P6SM OVC010=



000
FTUS46 KLOX 051730
TAFLAX
TAF
KLAX 051730Z 0518/0624 25006KT P6SM OVC018
     FM052000 26014KT P6SM SCT020
     FM060200 25008KT P6SM OVC015
     FM060700 VRB03KT P6SM OVC012
     FM061600 27007KT P6SM OVC018
     FM062000 26012KT P6SM SCT020=



000
FTUS46 KLOX 051730
TAFPMD
TAF
KPMD 051730Z 0518/0618 VRB03KT P6SM SKC
     FM051900 23010KT P6SM SKC
     FM052100 24018G26KT P6SM SKC
     FM060300 24012KT P6SM SKC
     FM060800 20007KT P6SM SKC
     FM061400 VRB03KT P6SM SKC=



000
FTUS46 KLOX 051730
TAFWJF
TAF
KWJF 051730Z 0518/0618 24012KT P6SM SKC
     FM052100 24020G30KT P6SM SKC
     FM060200 25014KT P6SM SKC
     FM060500 24008KT P6SM SKC
     FM061000 VRB03KT P6SM SKC=



000
FTUS46 KLOX 051634 AAB
TAFSBP
TAF AMD
KSBP 051634Z 0517/0612 VRB03KT P6SM BKN015
     FM051800 VRB03KT P6SM SCT015
     FM052100 29012KT P6SM SKC
     FM060300 30006KT P6SM BKN012
     FM060900 VRB03KT P6SM BKN008=



000
FTUS46 KLOX 051634 AAB
TAFSBP
TAF AMD
KSBP 051634Z 0517/0612 VRB03KT P6SM BKN015
     FM051800 VRB03KT P6SM SCT015
     FM052100 29012KT P6SM SKC
     FM060300 30006KT P6SM BKN012
     FM060900 VRB03KT P6SM BKN008=



000
FTUS46 KLOX 051610 AAB
TAFSMX
TAF AMD
KSMX 051610Z 0516/0612 VRB03KT 5SM BR OVC008
     FM051900 29007KT P6SM SCT015
     FM052100 31012KT P6SM SKC
     FM060300 VRB03KT P6SM BKN007
     FM061000 VRB03KT 5SM BR OVC003=



000
FTUS46 KLOX 051610 AAA
TAFVNY
TAF AMD
KVNY 051610Z 0516/0612 VRB03KT 5SM BR OVC012
     FM051730 VRB03KT P6SM SKC
     FM051900 14010KT P6SM SKC
     FM060500 VRB03KT P6SM SKC
     FM060900 VRB03KT 5SM BR OVC010=



000
FTUS46 KLOX 051502 AAA
TAFSMX
TAF AMD
KSMX 051502Z 0515/0612 VRB03KT P6SM OVC012
     FM051900 29007KT P6SM SCT015
     FM052100 31012KT P6SM SKC
     FM060300 VRB03KT P6SM BKN007
     FM061000 VRB03KT 5SM BR OVC003=



000
FTUS46 KLOX 051502 AAA
TAFSBP
TAF AMD
KSBP 051502Z 0515/0612 VRB03KT P6SM OVC008
     FM051800 VRB03KT P6SM SCT015
     FM052100 29012KT P6SM SKC
     FM060300 30006KT P6SM BKN012
     FM060900 VRB03KT P6SM BKN008=



000
FTUS46 KLOX 051502 AAA
TAFSBA
TAF AMD
KSBA 051502Z 0515/0612 VRB03KT P6SM OVC007
     FM051700 VRB03KT P6SM OVC010
     FM052200 25010KT P6SM SCT015
     FM060300 VRB03KT P6SM SKC
     FM060500 VRB03KT P6SM BKN009
     FM061100 VRB03KT 5SM BR OVC012=



000
FTUS46 KLOX 051452 AAA
TAFLAX
TAF AMD
KLAX 051452Z 0515/0618 26006KT P6SM OVC018
     FM052000 27012KT P6SM SCT020
     FM060300 27006KT P6SM BKN012
     FM060800 VRB03KT P6SM OVC010=



000
FTUS46 KLOX 051403 AAB
TAFBUR
TAF AMD
KBUR 051403Z 0514/0612 VRB03KT 5SM BR OVC008
     FM051700 VRB03KT P6SM FEW010
     FM052100 18010KT P6SM SKC
     FM060500 VRB03KT P6SM SKC
     FM060900 VRB03KT 5SM BR OVC010=



000
FTUS46 KLOX 051353 AAA
TAFPRB
TAF AMD
KPRB 051353Z 0514/0612 VRB03KT P6SM BKN008
     FM051600 VRB03KT P6SM SKC
     FM051800 22008KT P6SM SKC
     FM052100 22020G28KT P6SM SKC
     FM060300 22010KT P6SM SKC
     FM061100 VRB03KT P6SM OVC015=



000
FTUS46 KLOX 051300 AAA
TAFBUR
TAF AMD
KBUR 051300Z 0513/0612 VRB03KT 5SM BR OVC010
     FM051700 VRB03KT P6SM FEW010
     FM052100 18010KT P6SM SKC
     FM060500 VRB03KT P6SM SKC
     FM060900 VRB03KT 5SM BR OVC010=



000
FTUS46 KLOX 051300 AAA
TAFBUR
TAF AMD
KBUR 051300Z 0513/0612 VRB03KT 5SM BR OVC010
     FM051700 VRB03KT P6SM FEW010
     FM052100 18010KT P6SM SKC
     FM060500 VRB03KT P6SM SKC
     FM060900 VRB03KT 5SM BR OVC010=



000
FTUS46 KLOX 051120
TAFPMD
TAF
KPMD 051120Z 0512/0612 VRB05KT P6SM SKC
     FM051900 23012KT P6SM SKC
     FM052200 24015G25KT P6SM SKC
     FM060300 24012KT P6SM SKC
     FM060600 22008KT P6SM SKC=



000
FTUS46 KLOX 051120
TAFLGB
TAF
KLGB 051120Z 0512/0612 VRB03KT P6SM OVC015
     FM051900 19008KT P6SM SCT020
     FM060000 29008KT P6SM SKC
     FM060500 VRB03KT P6SM BKN012=



000
FTUS46 KLOX 051120
TAFSBA
TAF
KSBA 051120Z 0512/0612 VRB03KT P6SM OVC007
     FM051500 VRB03KT P6SM OVC010
     FM052200 25010KT P6SM SCT015
     FM060300 VRB03KT P6SM SKC
     FM060500 VRB03KT P6SM BKN009
     FM061100 VRB03KT 5SM BR OVC012=



000
FTUS46 KLOX 051120
TAFSBP
TAF
KSBP 051120Z 0512/0612 VRB03KT P6SM OVC008
     FM051500 VRB03KT P6SM OVC010
     FM051800 VRB03KT P6SM SCT015
     FM052100 29012KT P6SM SKC
     FM060300 30006KT P6SM BKN012
     FM060900 VRB03KT P6SM BKN008=



000
FTUS46 KLOX 051120
TAFVNY
TAF
KVNY 051120Z 0512/0612 VRB03KT 5SM BR OVC007
     FM051700 VRB03KT P6SM SKC
     FM051900 14010KT P6SM SKC
     FM060500 VRB03KT P6SM SKC
     FM060900 VRB03KT 5SM BR OVC010=



000
FTUS46 KLOX 051120
TAFBUR
TAF
KBUR 051120Z 0512/0612 VRB03KT 5SM BR OVC009
     FM051500 VRB03KT 5SM BR OVC010
     FM051700 VRB03KT P6SM FEW010
     FM052100 18010KT P6SM SKC
     FM060500 VRB03KT P6SM SKC
     FM060900 VRB03KT 5SM BR OVC010=



000
FTUS46 KLOX 051120
TAFPRB
TAF
KPRB 051120Z 0512/0612 VRB03KT P6SM SKC
     FM051800 22008KT P6SM SKC
     FM052100 22020G28KT P6SM SKC
     FM060300 22010KT P6SM SKC
     FM061100 VRB03KT P6SM OVC015=



000
FTUS46 KLOX 051120
TAFWJF
TAF
KWJF 051120Z 0512/0612 VRB05KT P6SM SKC
     FM051900 24012KT P6SM SKC
     FM052200 25020G30KT P6SM SKC
     FM060300 25018KT P6SM SKC
     FM060700 25012KT P6SM SKC=



000
FTUS46 KLOX 051120
TAFSMX
TAF
KSMX 051120Z 0512/0612 VRB03KT P6SM OVC006
     FM051600 VRB03KT P6SM BKN010
     FM051900 29007KT P6SM SCT015
     FM052100 31012KT P6SM SKC
     FM060300 VRB03KT P6SM BKN007
     FM061000 VRB03KT 5SM BR OVC003=



000
FTUS46 KLOX 051120
TAFLAX
TAF
KLAX 051120Z 0512/0618 VRB03KT P6SM OVC012
     FM052000 27012KT P6SM SCT015
     FM060300 27006KT P6SM BKN012
     FM060800 VRB03KT P6SM OVC010=



000
FTUS46 KLOX 051108 AAB
TAFSMX
TAF AMD
KSMX 051108Z 0511/0606 VRB03KT P6SM OVC006
     FM051600 VRB03KT P6SM BKN010
     FM051900 29007KT P6SM SCT015
     FM052100 31012KT P6SM SKC
     FM060300 VRB03KT P6SM BKN007=



000
FTUS46 KLOX 051108 AAB
TAFSMX
TAF AMD
KSMX 051108Z 0511/0606 VRB03KT P6SM OVC006
     FM051600 VRB03KT P6SM BKN010
     FM051900 29007KT P6SM SCT015
     FM052100 31012KT P6SM SKC
     FM060300 VRB03KT P6SM BKN007=



000
FTUS46 KLOX 051107 AAA
TAFPRB
TAF AMD
KPRB 051107Z 0511/0606 VRB03KT P6SM SKC
     FM051800 22008KT P6SM SKC
     FM052100 22020G28KT P6SM SKC
     FM060300 22010KT P6SM SKC=



000
FTUS46 KLOX 051033 AAB
TAFSBP
TAF AMD
KSBP 051033Z 0511/0606 VRB03KT P6SM OVC008
     FM051600 VRB03KT P6SM OVC012
     FM051800 VRB03KT P6SM SCT015
     FM052100 29012KT P6SM SKC
     FM060300 30007KT P6SM BKN012=



000
FTUS46 KLOX 051033 AAB
TAFSBP
TAF AMD
KSBP 051033Z 0511/0606 VRB03KT P6SM OVC008
     FM051600 VRB03KT P6SM OVC012
     FM051800 VRB03KT P6SM SCT015
     FM052100 29012KT P6SM SKC
     FM060300 30007KT P6SM BKN012=



000
FTUS46 KLOX 050935 AAA
TAFVNY
TAF AMD
KVNY 050935Z 0510/0606 14006KT P6SM BKN008
     FM051300 VRB03KT 5SM BR OVC007
     FM051700 VRB03KT P6SM SKC
     FM051900 14010KT P6SM SKC
     FM060500 VRB03KT P6SM SKC=



000
FTUS46 KLOX 050903 AAA
TAFSBP
TAF AMD
KSBP 050903Z 0509/0606 30006KT P6SM OVC015
     FM051200 VRB03KT P6SM OVC008
     FM051600 VRB03KT P6SM OVC012
     FM051800 VRB03KT P6SM SCT015
     FM052100 29012KT P6SM SKC
     FM060300 30007KT P6SM BKN012=



000
FTUS46 KLOX 050902 AAA
TAFBUR
TAF AMD
KBUR 050902Z 0509/0606 VRB03KT 5SM BR OVC008
     FM051700 VRB03KT P6SM FEW010
     FM052100 18010KT P6SM SKC
     FM060500 VRB03KT P6SM SKC=



000
FTUS46 KLOX 050902 AAB
TAFLAX
TAF AMD
KLAX 050902Z 0509/0612 VRB03KT P6SM OVC012
     FM052000 27012KT P6SM SCT015
     FM060300 27007KT P6SM BKN012
     FM060800 VRB03KT P6SM OVC010=



000
FTUS46 KLOX 050902 AAA
TAFSMX
TAF AMD
KSMX 050902Z 0509/0606 VRB03KT P6SM OVC006
     FM051200 VRB03KT 2SM BR OVC003
     FM051400 VRB03KT 5SM BR OVC007
     FM051600 VRB03KT P6SM BKN010
     FM051900 29007KT P6SM SCT015
     FM052100 31012KT P6SM SKC
     FM060300 VRB03KT P6SM BKN007=



000
FTUS46 KLOX 050802 AAA
TAFLAX
TAF AMD
KLAX 050802Z 0508/0612 VRB03KT P6SM OVC012
     FM052000 27012KT P6SM SCT015
     FM060300 27007KT P6SM BKN012
     FM060800 VRB03KT P6SM OVC010=



000
FTUS46 KLOX 050630 AAA
TAFLGB
TAF AMD
KLGB 050630Z 0507/0606 VRB03KT 5SM HZ BKN015
     FM050900 VRB03KT P6SM OVC010
     FM051900 19007KT P6SM SCT015
     FM060000 29008KT P6SM SKC
     FM060500 VRB03KT P6SM BKN010=



000
FTUS46 KLOX 050535
TAFVNY
TAF
KVNY 050535Z 0506/0606 11006KT P6SM SKC
     FM051100 VRB03KT 5SM BR OVC007
     FM051700 VRB03KT P6SM SKC
     FM051900 14010KT P6SM SKC
     FM060500 VRB03KT P6SM SKC=



000
FTUS46 KLOX 050535
TAFSBP
TAF
KSBP 050535Z 0506/0606 30006KT P6SM OVC015
     FM050900 VRB03KT P6SM OVC008
     FM051600 VRB03KT P6SM OVC012
     FM051800 VRB03KT P6SM SCT015
     FM052100 29012KT P6SM SKC
     FM060300 30007KT P6SM BKN012=



000
FTUS46 KLOX 050535
TAFPRB
TAF
KPRB 050535Z 0506/0606 29006KT P6SM SKC
     FM051200 VRB03KT P6SM OVC005
     FM051600 VRB03KT P6SM SKC
     FM051800 22008KT P6SM SKC
     FM052100 22020G28KT P6SM SKC
     FM060300 22010KT P6SM SKC=



000
FTUS46 KLOX 050535
TAFWJF
TAF
KWJF 050535Z 0506/0606 22007KT P6SM SKC
     FM051200 VRB05KT P6SM SKC
     FM051900 23012KT P6SM SKC
     FM052200 24020G30KT P6SM SKC
     FM060300 24012KT P6SM SKC=



000
FTUS46 KLOX 050535
TAFSBA
TAF
KSBA 050535Z 0506/0606 VRB03KT P6SM OVC007
     FM051500 VRB03KT P6SM OVC010
     FM051800 16007KT P6SM BKN012
     FM052200 25010KT P6SM SCT015
     FM060300 VRB03KT P6SM SKC
     FM060500 VRB03KT P6SM BKN009=



000
FTUS46 KLOX 050535
TAFBUR
TAF
KBUR 050535Z 0506/0606 12006KT P6SM SKC
     FM051100 VRB03KT 5SM BR OVC007
     FM051700 VRB03KT P6SM FEW010
     FM052100 18010KT P6SM SKC
     FM060500 VRB03KT P6SM SKC=



000
FTUS46 KLOX 050535
TAFSMX
TAF
KSMX 050535Z 0506/0606 VRB03KT P6SM OVC006
     FM050900 VRB03KT 2SM BR OVC003
     FM051400 VRB03KT 5SM BR OVC007
     FM051600 VRB03KT P6SM BKN010
     FM051900 29007KT P6SM SCT015
     FM052100 31012KT P6SM SKC
     FM060300 VRB03KT P6SM BKN007=



000
FTUS46 KLOX 050535
TAFLGB
TAF
KLGB 050535Z 0506/0606 VRB03KT 5SM HZ SKC
     FM050900 VRB03KT P6SM OVC010
     FM051900 19007KT P6SM SCT015
     FM060000 29008KT P6SM SKC
     FM060500 VRB03KT P6SM BKN010=



000
FTUS46 KLOX 050535
TAFLAX
TAF
KLAX 050535Z 0506/0612 26008KT P6SM OVC008
     FM051500 VRB03KT P6SM OVC012
     FM052000 27012KT P6SM SCT015
     FM060300 27007KT P6SM BKN012
     FM060800 VRB03KT P6SM OVC010=



000
FTUS46 KLOX 050535
TAFPMD
TAF
KPMD 050535Z 0506/0606 22007KT P6SM SKC
     FM051200 VRB05KT P6SM SKC
     FM051900 23012KT P6SM SKC
     FM052200 24020G30KT P6SM SKC
     FM060300 24012KT P6SM SKC=



000
FTUS46 KLOX 050322 AAA
TAFLAX
TAF AMD
KLAX 050322Z 0503/0606 26010KT P6SM OVC011
     FM050700 VRB03KT P6SM OVC008
     FM051500 VRB03KT P6SM OVC012
     FM052000 27012KT P6SM BKN015
     FM060400 27007KT P6SM BKN012=



000
FTUS46 KLOX 050300 AAA
TAFSMX
TAF AMD
KSMX 050300Z 0503/0524 32006KT P6SM OVC009
     FM050400 VRB03KT 6SM BR OVC005
     FM050700 VRB03KT 2SM BR OVC003
     FM051400 VRB03KT 5SM BR OVC007
     FM051600 VRB03KT P6SM BKN010
     FM051800 29005KT P6SM SCT015
     FM052100 31012KT P6SM SKC=



000
FTUS46 KLOX 050300 AAA
TAFSMX
TAF AMD
KSMX 050300Z 0503/0524 32006KT P6SM OVC009
     FM050400 VRB03KT 6SM BR OVC005
     FM050700 VRB03KT 2SM BR OVC003
     FM051400 VRB03KT 5SM BR OVC007
     FM051600 VRB03KT P6SM BKN010
     FM051800 29005KT P6SM SCT015
     FM052100 31012KT P6SM SKC=



000
FTUS46 KLOX 050150 CCA
TAFPMD
TAF COR
KPMD 050150Z 0500/0524 23020G27KT P6SM SKC
     FM050300 23015KT P6SM SKC
     FM050700 20007KT P6SM SKC
     FM051400 VRB05KT P6SM SKC
     FM051700 23012KT P6SM SKC
     FM052100 24020G30KT P6SM SKC=



000
FTUS46 KLOX 050150 AAA
TAFWJF
TAF AMD
KWJF 050150Z 0502/0524 24021G30KT P6SM SKC
     FM050300 24014KT P6SM SKC
     FM051100 VRB05KT P6SM SKC
     FM051500 23012KT P6SM SKC
     FM051800 23015G25KT P6SM SKC
     FM052200 24020G30KT P6SM SKC=



000
FTUS46 KLOX 042340
TAFSBA
TAF
KSBA 042340Z 0500/0524 27014KT P6SM SCT014
     FM050300 VRB03KT P6SM SKC
     FM050500 VRB03KT P6SM OVC006
     FM051500 13006KT P6SM OVC010
     FM051800 19007KT P6SM BKN014
     FM052000 24008KT P6SM SCT015
     FM052300 28014KT P6SM SKC=



000
FTUS46 KLOX 042340
TAFLGB
TAF
KLGB 042340Z 0500/0524 17007KT P6SM SKC
     FM050400 VRB03KT P6SM SKC
     FM050800 VRB03KT P6SM OVC010
     FM051800 19006KT P6SM SCT015
     FM052200 25008KT P6SM SKC=



000
FTUS46 KLOX 042340
TAFPRB
TAF
KPRB 042340Z 0500/0524 20018G26KT P6SM SKC
     FM050300 20010KT P6SM SKC
     FM050600 29006KT P6SM SKC
     FM051100 VRB03KT P6SM OVC005
     FM051600 VRB03KT P6SM SKC
     FM051800 24008KT P6SM SKC
     FM052100 22020G28KT P6SM SKC=



000
FTUS46 KLOX 042340
TAFVNY
TAF
KVNY 042340Z 0500/0524 14009KT P6SM SKC
     FM050300 VRB03KT P6SM SKC
     FM050800 VRB03KT 6SM BR OVC007
     FM051700 VRB03KT P6SM SKC
     FM051900 15012KT P6SM SKC=



000
FTUS46 KLOX 042340
TAFSMX
TAF
KSMX 042340Z 0500/0524 30010KT P6SM SKC
     FM050400 VRB03KT 6SM BR OVC005
     FM050700 VRB03KT 2SM BR OVC003
     FM051400 VRB03KT 5SM BR OVC007
     FM051600 VRB03KT P6SM BKN010
     FM051800 29005KT P6SM SCT015
     FM052100 31012KT P6SM SKC=



000
FTUS46 KLOX 042340
TAFSBP
TAF
KSBP 042340Z 0500/0524 31012KT P6SM SKC
     FM050600 30006KT P6SM OVC006
     FM051600 VRB03KT P6SM OVC010
     FM051800 VRB03KT P6SM SCT015
     FM052100 29012KT P6SM SKC=



000
FTUS46 KLOX 042340
TAFPMD
TAF
KPMD 042340Z 0500/0524 24020G284KT P6SM SKC
     FM050200 23015KT P6SM SKC
     FM050700 20007KT P6SM SKC
     FM051400 VRB05KT P6SM SKC
     FM051700 23012KT P6SM SKC
     FM052100 24020G30KT P6SM SKC=



000
FTUS46 KLOX 042340
TAFWJF
TAF
KWJF 042340Z 0500/0524 20008KT P6SM SKC
     FM050100 24014KT P6SM SKC
     FM051100 VRB05KT P6SM SKC
     FM051500 23012KT P6SM SKC
     FM051800 23015G25KT P6SM SKC
     FM052200 24020G30KT P6SM SKC=



000
FTUS46 KLOX 042340
TAFLAX
TAF
KLAX 042340Z 0500/0606 27014KT P6SM SCT020
      TEMPO 0500/0503 BKN015
     FM050300 26008KT P6SM OVC012
     FM050700 VRB03KT P6SM OVC008
     FM051500 VRB03KT P6SM OVC012
     FM052000 27012KT P6SM BKN015
     FM060400 27007KT P6SM BKN012=



000
FTUS46 KLOX 042340
TAFBUR
TAF
KBUR 042340Z 0500/0524 18012KT P6SM SKC
     FM050200 13007KT P6SM SKC
     FM050800 VRB03KT 5SM BR OVC007
     FM051700 15005KT P6SM FEW010
     FM052100 18010KT P6SM SKC=



000
FTUS46 KLOX 042129 AAA
TAFSBA
TAF AMD
KSBA 042129Z 0421/0518 23008KT P6SM BKN015
     FM042230 26010KT P6SM SKC
     FM050300 VRB03KT P6SM SKC
     FM050500 VRB03KT P6SM OVC006
     FM051500 13006KT P6SM OVC010=



000
FTUS46 KLOX 042050 AAA
TAFLAX
TAF AMD
KLAX 042050Z 0421/0524 27014KT P6SM FEW020
     FM050300 26008KT P6SM OVC012
     FM050700 VRB03KT P6SM OVC008
     FM051500 VRB03KT P6SM OVC012
     FM052000 27012KT P6SM BKN015=



000
FTUS46 KLOX 041759 CCA
TAFLAX
TAF COR
KLAX 041759Z 0418/0524 25007KT P6SM BKN020
     FM041900 24007KT P6SM FEW020
     FM042100 27014KT P6SM FEW020
     FM050300 26008KT P6SM OVC012
     FM050700 VRB03KT P6SM OVC008
     FM051500 VRB03KT P6SM OVC012
     FM052000 27012KT P6SM BKN015=



000
FTUS46 KLOX 041730
TAFLAX
TAF
KLAX 041730Z 0418/0524 27008KT P6SM BKN015
     FM042100 27014KT P6SM SCT015
     FM050300 26008KT P6SM OVC012
     FM050700 VRB03KT P6SM OVC008
     FM051500 VRB03KT P6SM OVC012
     FM052000 27012KT P6SM BKN015=



000
FTUS46 KLOX 041730
TAFBUR
TAF
KBUR 041730Z 0418/0518 17010KT P6SM SKC
     FM050200 13007KT P6SM SKC
     FM050800 VRB03KT 5SM BR OVC007
     FM051700 VRB03KT P6SM FEW010=



000
FTUS46 KLOX 041730
TAFPRB
TAF
KPRB 041730Z 0418/0518 VRB03KT P6SM SKC
     FM042100 21010KT P6SM SKC
     FM042300 20018G26KT P6SM SKC
     FM050300 20010KT P6SM SKC
     FM050600 29006KT P6SM SKC
     FM051100 VRB03KT P6SM OVC005
     FM051600 VRB03KT P6SM SKC=



000
FTUS46 KLOX 041730
TAFVNY
TAF
KVNY 041730Z 0418/0518 15008KT P6SM SKC
     FM050300 VRB03KT P6SM SKC
     FM050800 VRB03KT 6SM BR OVC007
     FM051700 VRB03KT P6SM SKC=



000
FTUS46 KLOX 041730
TAFSBA
TAF
KSBA 041730Z 0418/0518 16008KT P6SM SCT015
     FM042100 26010KT P6SM SKC
     FM050300 VRB03KT P6SM SKC
     FM050500 VRB03KT P6SM OVC006
     FM051500 13006KT P6SM OVC010=



000
FTUS46 KLOX 041730
TAFSMX
TAF
KSMX 041730Z 0418/0518 VRB03KT P6SM BKN012
     FM041900 30012KT P6SM SKC
     FM050300 VRB03KT 6SM BR OVC005
     FM050600 VRB03KT 2SM BR OVC003
     FM051400 VRB03KT 4SM BR OVC005
     FM051700 VRB03KT P6SM BKN010=



000
FTUS46 KLOX 041730
TAFWJF
TAF
KWJF 041730Z 0418/0518 24010KT P6SM SKC
     FM042100 23020G28KT P6SM SKC
     FM050300 24014KT P6SM SKC
     FM051100 VRB03KT P6SM SKC=



000
FTUS46 KLOX 041730
TAFSBP
TAF
KSBP 041730Z 0418/0518 29006KT P6SM FEW015
     FM042000 31012KT P6SM SKC
     FM050600 30006KT P6SM OVC006
     FM051600 VRB03KT P6SM OVC010=



000
FTUS46 KLOX 041730
TAFLGB
TAF
KLGB 041730Z 0418/0518 19008KT P6SM SKC
     FM042300 31010KT P6SM SKC
     FM050400 VRB03KT P6SM SKC
     FM050800 VRB03KT P6SM OVC010=



000
FTUS46 KLOX 041730
TAFSBA
TAF
KSBA 041730Z 0418/0518 16008KT P6SM SCT015
     FM042100 26010KT P6SM SKC
     FM050300 VRB03KT P6SM SKC
     FM050500 VRB03KT P6SM OVC006
     FM051500 13006KT P6SM OVC010=



000
FTUS46 KLOX 041730
TAFPRB
TAF
KPRB 041730Z 0418/0518 VRB03KT P6SM SKC
     FM042100 21010KT P6SM SKC
     FM042300 20018G26KT P6SM SKC
     FM050300 20010KT P6SM SKC
     FM050600 29006KT P6SM SKC
     FM051100 VRB03KT P6SM OVC005
     FM051600 VRB03KT P6SM SKC=



000
FTUS46 KLOX 041730
TAFSBP
TAF
KSBP 041730Z 0418/0518 29006KT P6SM FEW015
     FM042000 31012KT P6SM SKC
     FM050600 30006KT P6SM OVC006
     FM051600 VRB03KT P6SM OVC010=



000
FTUS46 KLOX 041730
TAFPMD
TAF
KPMD 041730Z 0418/0518 25010KT P6SM SKC
     FM042100 23018G24KT P6SM SKC
     FM050200 23012KT P6SM SKC
     FM050700 20007KT P6SM SKC
     FM051400 VRB03KT P6SM SKC=



000
FTUS46 KLOX 041730
TAFLAX
TAF
KLAX 041730Z 0418/0524 27008KT P6SM BKN015
     FM042100 27014KT P6SM SCT015
     FM050300 26008KT P6SM OVC012
     FM050700 VRB03KT P6SM OVC008
     FM051500 VRB03KT P6SM OVC012
     FM052000 27012KT P6SM BKN015=



000
FTUS46 KLOX 041730
TAFBUR
TAF
KBUR 041730Z 0418/0518 17010KT P6SM SKC
     FM050200 13007KT P6SM SKC
     FM050800 VRB03KT 5SM BR OVC007
     FM051700 VRB03KT P6SM FEW010=



000
FTUS46 KLOX 041730
TAFSMX
TAF
KSMX 041730Z 0418/0518 VRB03KT P6SM BKN012
     FM041900 30012KT P6SM SKC
     FM050300 VRB03KT 6SM BR OVC005
     FM050600 VRB03KT 2SM BR OVC003
     FM051400 VRB03KT 4SM BR OVC005
     FM051700 VRB03KT P6SM BKN010=



000
FTUS46 KLOX 041730
TAFPMD
TAF
KPMD 041730Z 0418/0518 25010KT P6SM SKC
     FM042100 23018G24KT P6SM SKC
     FM050200 23012KT P6SM SKC
     FM050700 20007KT P6SM SKC
     FM051400 VRB03KT P6SM SKC=



000
FTUS46 KLOX 041730
TAFVNY
TAF
KVNY 041730Z 0418/0518 15008KT P6SM SKC
     FM050300 VRB03KT P6SM SKC
     FM050800 VRB03KT 6SM BR OVC007
     FM051700 VRB03KT P6SM SKC=



000
FTUS46 KLOX 041730
TAFLGB
TAF
KLGB 041730Z 0418/0518 19008KT P6SM SKC
     FM042300 31010KT P6SM SKC
     FM050400 VRB03KT P6SM SKC
     FM050800 VRB03KT P6SM OVC010=



000
FTUS46 KLOX 041730
TAFWJF
TAF
KWJF 041730Z 0418/0518 24010KT P6SM SKC
     FM042100 23020G28KT P6SM SKC
     FM050300 24014KT P6SM SKC
     FM051100 VRB03KT P6SM SKC=



000
FTUS46 KLOX 041618 AAD
TAFSBP
TAF AMD
KSBP 041618Z 0416/0512 35006KT P6SM BKN012
     FM041700 34006KT P6SM FEW012
     FM041900 28007KT P6SM SKC
     FM042200 30012KT P6SM SKC
     FM050600 30006KT P6SM BKN005
     FM050900 VRB03KT 4SM BR BKN004=



000
FTUS46 KLOX 041618 AAA
TAFSBA
TAF AMD
KSBA 041618Z 0416/0512 VRB03KT P6SM OVC008
     FM041800 20006KT P6SM BKN012
     FM042100 26009KT P6SM SKC
     FM050300 VRB03KT 5SM BR BKN006=



000
FTUS46 KLOX 041504 AAC
TAFSBP
TAF AMD
KSBP 041504Z 0415/0512 VRB03KT P6SM OVC006
     FM041900 28007KT P6SM SCT010
     FM042200 30012KT P6SM SKC
     FM050600 30006KT P6SM BKN005
     FM050900 VRB03KT 4SM BR BKN004=



000
FTUS46 KLOX 041502 AAA
TAFLAX
TAF AMD
KLAX 041502Z 0415/0518 VRB03KT P6SM OVC012
     FM041700 24006KT P6SM OVC015
     FM042100 26012KT P6SM SCT015
     FM050300 26010KT P6SM BKN012
     FM050600 VRB03KT 5SM BR OVC010
     FM051000 VRB03KT 4SM BR OVC008
     FM051700 24006KT P6SM OVC012=



000
FTUS46 KLOX 041502 AAA
TAFLAX
TAF AMD
KLAX 041502Z 0415/0518 VRB03KT P6SM OVC012
     FM041700 24006KT P6SM OVC015
     FM042100 26012KT P6SM SCT015
     FM050300 26010KT P6SM BKN012
     FM050600 VRB03KT 5SM BR OVC010
     FM051000 VRB03KT 4SM BR OVC008
     FM051700 24006KT P6SM OVC012=



000
FTUS46 KLOX 041401 AAA
TAFPRB
TAF AMD
KPRB 041401Z 0414/0512 VRB03KT P6SM SKC
     FM041900 22012KT P6SM SKC
     FM042200 22017G25KT P6SM SKC
     FM050400 22010KT P6SM SKC
     FM050600 VRB03KT P6SM SKC=



000
FTUS46 KLOX 041308 AAB
TAFSMX
TAF AMD
KSMX 041308Z 0413/0512 VRB03KT P6SM OVC003
     FM041700 VRB03KT P6SM BKN006
     FM041900 28008KT P6SM SCT010
     FM042200 29014KT P6SM SKC
     FM050300 31006KT P6SM BKN005
     FM050800 VRB03KT 4SM BR BKN004
     FM051000 VRB03KT 1SM BR BKN002=



000
FTUS46 KLOX 041308 AAB
TAFSBP
TAF AMD
KSBP 041308Z 0413/0512 VRB03KT P6SM OVC004
     FM041600 VRB03KT P6SM OVC006
     FM041900 28007KT P6SM SCT010
     FM042200 30012KT P6SM SKC
     FM050600 30006KT P6SM BKN005
     FM050900 VRB03KT 4SM BR BKN004=



000
FTUS46 KLOX 041308 AAB
TAFSMX
TAF AMD
KSMX 041308Z 0413/0512 VRB03KT P6SM OVC003
     FM041700 VRB03KT P6SM BKN006
     FM041900 28008KT P6SM SCT010
     FM042200 29014KT P6SM SKC
     FM050300 31006KT P6SM BKN005
     FM050800 VRB03KT 4SM BR BKN004
     FM051000 VRB03KT 1SM BR BKN002=



000
FTUS46 KLOX 041308 AAB
TAFSBP
TAF AMD
KSBP 041308Z 0413/0512 VRB03KT P6SM OVC004
     FM041600 VRB03KT P6SM OVC006
     FM041900 28007KT P6SM SCT010
     FM042200 30012KT P6SM SKC
     FM050600 30006KT P6SM BKN005
     FM050900 VRB03KT 4SM BR BKN004=



000
FTUS46 KLOX 041234 AAA
TAFSBP
TAF AMD
KSBP 041234Z 0413/0512 VRB03KT P6SM OVC005
     FM041600 VRB03KT P6SM OVC006
     FM041900 28007KT P6SM SCT010
     FM042200 30012KT P6SM SKC
     FM050600 30006KT P6SM BKN005
     FM050900 VRB03KT 4SM BR BKN004=



000
FTUS46 KLOX 041234 AAA
TAFSMX
TAF AMD
KSMX 041234Z 0413/0512 VRB03KT P6SM OVC007
     FM041900 28008KT P6SM SCT010
     FM042200 29014KT P6SM SKC
     FM050300 31006KT P6SM BKN005
     FM050800 VRB03KT 4SM BR BKN004
     FM051000 VRB03KT 1SM BR BKN002=



000
FTUS46 KLOX 041128
TAFLGB
TAF
KLGB 041128Z 0412/0512 VRB03KT P6SM OVC012
     FM041700 18008KT P6SM BKN015
     FM042300 30008KT P6SM SCT015
     FM050400 VRB03KT 6SM BR BKN010=



000
FTUS46 KLOX 041128
TAFLGB
TAF
KLGB 041128Z 0412/0512 VRB03KT P6SM OVC012
     FM041700 18008KT P6SM BKN015
     FM042300 30008KT P6SM SCT015
     FM050400 VRB03KT 6SM BR BKN010=



000
FTUS46 KLOX 041128
TAFSBA
TAF
KSBA 041128Z 0412/0512 VRB03KT P6SM OVC007
     FM041600 VRB03KT 6SM HZ OVC010
     FM041800 20006KT P6SM BKN012
     FM042100 26009KT P6SM SKC
     FM050300 VRB03KT 5SM BR BKN006=



000
FTUS46 KLOX 041128
TAFLAX
TAF
KLAX 041128Z 0412/0518 VRB03KT P6SM OVC010
     FM041700 24006KT P6SM OVC015
     FM042100 26012KT P6SM SCT015
     FM050300 26010KT P6SM BKN012
     FM050600 VRB03KT 5SM BR OVC010
     FM051000 VRB03KT 4SM BR OVC008
     FM051700 24006KT P6SM OVC012=



000
FTUS46 KLOX 041128
TAFSBP
TAF
KSBP 041128Z 0412/0512 VRB03KT 6SM BR BKN004
     FM041300 VRB03KT 4SM BR OVC003
     FM041600 VRB03KT 6SM HZ OVC006
     FM041900 28007KT P6SM SCT010
     FM042200 30012KT P6SM SKC
     FM050600 30006KT P6SM BKN005
     FM050900 VRB03KT 4SM BR BKN004=



000
FTUS46 KLOX 041128
TAFPRB
TAF
KPRB 041128Z 0412/0512 VRB03KT P6SM SKC
     FM041400 VRB03KT 1/2SM FG VV001
     FM041500 VRB03KT 2SM BR OVC004
     FM041600 VRB03KT P6SM SCT008
     FM041900 22012KT P6SM SKC
     FM042200 22017G25KT P6SM SKC
     FM050400 22010KT P6SM SKC
     FM050600 VRB03KT P6SM SKC=



000
FTUS46 KLOX 041128
TAFBUR
TAF
KBUR 041128Z 0412/0512 VRB03KT P6SM SKC
     FM041800 18010KT P6SM SKC
     FM050400 12006KT 5SM HZ SKC
     FM051000 VRB03KT P6SM SKC=



000
FTUS46 KLOX 041128
TAFWJF
TAF
KWJF 041128Z 0412/0512 26006KT P6SM SCT200
     FM041700 23012KT P6SM SKC
     FM042200 23020G30KT P6SM SKC
     FM050400 23015KT P6SM SKC
     FM050700 25008KT P6SM SKC=



000
FTUS46 KLOX 041128
TAFSMX
TAF
KSMX 041128Z 0412/0512 VRB03KT 1SM BR VV002
     FM041400 VRB03KT 2SM BR OVC002
     FM041600 VRB03KT 5SM BR OVC006
     FM041900 28008KT P6SM SCT010
     FM042200 29014KT P6SM SKC
     FM050300 31006KT P6SM BKN005
     FM050800 VRB03KT 4SM BR BKN004
     FM051000 VRB03KT 1SM BR BKN002=



000
FTUS46 KLOX 041128
TAFSBA
TAF
KSBA 041128Z 0412/0512 VRB03KT P6SM OVC007
     FM041600 VRB03KT 6SM HZ OVC010
     FM041800 20006KT P6SM BKN012
     FM042100 26009KT P6SM SKC
     FM050300 VRB03KT 5SM BR BKN006=



000
FTUS46 KLOX 041128
TAFSBP
TAF
KSBP 041128Z 0412/0512 VRB03KT 6SM BR BKN004
     FM041300 VRB03KT 4SM BR OVC003
     FM041600 VRB03KT 6SM HZ OVC006
     FM041900 28007KT P6SM SCT010
     FM042200 30012KT P6SM SKC
     FM050600 30006KT P6SM BKN005
     FM050900 VRB03KT 4SM BR BKN004=



000
FTUS46 KLOX 041128
TAFPRB
TAF
KPRB 041128Z 0412/0512 VRB03KT P6SM SKC
     FM041400 VRB03KT 1/2SM FG VV001
     FM041500 VRB03KT 2SM BR OVC004
     FM041600 VRB03KT P6SM SCT008
     FM041900 22012KT P6SM SKC
     FM042200 22017G25KT P6SM SKC
     FM050400 22010KT P6SM SKC
     FM050600 VRB03KT P6SM SKC=



000
FTUS46 KLOX 041128
TAFPMD
TAF
KPMD 041128Z 0412/0512 VRB05KT P6SM SCT200
     FM041700 24012KT P6SM SKC
     FM042200 24020G30KT P6SM SKC
     FM050300 24015KT P6SM SKC
     FM050600 20010KT P6SM SKC=



000
FTUS46 KLOX 041128
TAFVNY
TAF
KVNY 041128Z 0412/0512 VRB03KT P6SM SKC
     FM041800 18010KT P6SM SKC
     FM050400 VRB03KT 5SM HZ SKC=



000
FTUS46 KLOX 041128
TAFSMX
TAF
KSMX 041128Z 0412/0512 VRB03KT 1SM BR VV002
     FM041400 VRB03KT 2SM BR OVC002
     FM041600 VRB03KT 5SM BR OVC006
     FM041900 28008KT P6SM SCT010
     FM042200 29014KT P6SM SKC
     FM050300 31006KT P6SM BKN005
     FM050800 VRB03KT 4SM BR BKN004
     FM051000 VRB03KT 1SM BR BKN002=



000
FTUS46 KLOX 041128
TAFVNY
TAF
KVNY 041128Z 0412/0512 VRB03KT P6SM SKC
     FM041800 18010KT P6SM SKC
     FM050400 VRB03KT 5SM HZ SKC=



000
FTUS46 KLOX 041128
TAFBUR
TAF
KBUR 041128Z 0412/0512 VRB03KT P6SM SKC
     FM041800 18010KT P6SM SKC
     FM050400 12006KT 5SM HZ SKC
     FM051000 VRB03KT P6SM SKC=



000
FTUS46 KLOX 041128
TAFPMD
TAF
KPMD 041128Z 0412/0512 VRB05KT P6SM SCT200
     FM041700 24012KT P6SM SKC
     FM042200 24020G30KT P6SM SKC
     FM050300 24015KT P6SM SKC
     FM050600 20010KT P6SM SKC=



000
FTUS46 KLOX 041128
TAFWJF
TAF
KWJF 041128Z 0412/0512 26006KT P6SM SCT200
     FM041700 23012KT P6SM SKC
     FM042200 23020G30KT P6SM SKC
     FM050400 23015KT P6SM SKC
     FM050700 25008KT P6SM SKC=



000
FTUS46 KLOX 041128
TAFLAX
TAF
KLAX 041128Z 0412/0518 VRB03KT P6SM OVC010
     FM041700 24006KT P6SM OVC015
     FM042100 26012KT P6SM SCT015
     FM050300 26010KT P6SM BKN012
     FM050600 VRB03KT 5SM BR OVC010
     FM051000 VRB03KT 4SM BR OVC008
     FM051700 24006KT P6SM OVC012=



000
FTUS46 KLOX 041003 AAB
TAFSMX
TAF AMD
KSMX 041003Z 0410/0506 VRB03KT 1SM BR OVC002
     FM041200 VRB03KT 1/4SM FG VV002
     FM041400 VRB03KT 2SM BR OVC004
     FM041600 VRB03KT 5SM BR OVC007
     FM041900 28008KT P6SM SCT010
     FM042200 29014KT P6SM SKC
     FM050300 31007KT P6SM BKN005=



000
FTUS46 KLOX 041002 AAA
TAFSBP
TAF AMD
KSBP 041002Z 0410/0506 VRB03KT P6SM BKN003
     FM041300 VRB03KT 4SM BR OVC003
     FM041600 VRB03KT 6SM HZ OVC009
     FM041900 28007KT P6SM SCT012
     FM042200 30012KT P6SM SKC
     FM050400 30006KT P6SM BKN005=



000
FTUS46 KLOX 041002 AAC
TAFLGB
TAF AMD
KLGB 041002Z 0410/0506 VRB03KT P6SM SKC
     FM041200 VRB03KT P6SM OVC010
     FM041700 18007KT P6SM BKN015
     FM042100 27008KT P6SM SCT015
     FM050400 VRB03KT 6SM BR BKN010=



000
FTUS46 KLOX 041002 AAC
TAFLGB
TAF AMD
KLGB 041002Z 0410/0506 VRB03KT P6SM SKC
     FM041200 VRB03KT P6SM OVC010
     FM041700 18007KT P6SM BKN015
     FM042100 27008KT P6SM SCT015
     FM050400 VRB03KT 6SM BR BKN010=



000
FTUS46 KLOX 041002 AAA
TAFSBP
TAF AMD
KSBP 041002Z 0410/0506 VRB03KT P6SM BKN003
     FM041300 VRB03KT 4SM BR OVC003
     FM041600 VRB03KT 6SM HZ OVC009
     FM041900 28007KT P6SM SCT012
     FM042200 30012KT P6SM SKC
     FM050400 30006KT P6SM BKN005=



000
FTUS46 KLOX 041001 AAA
TAFBUR
TAF AMD
KBUR 041001Z 0410/0506 VRB03KT P6SM SKC
     FM041800 18010KT P6SM SKC
     FM050400 16006KT 5SM HZ SKC=



000
FTUS46 KLOX 041001 AAA
TAFVNY
TAF AMD
KVNY 041001Z 0410/0506 VRB03KT P6SM SKC
     FM041800 18010KT P6SM SKC
     FM050400 16006KT 5SM HZ SKC=



000
FTUS46 KLOX 041001 AAA
TAFBUR
TAF AMD
KBUR 041001Z 0410/0506 VRB03KT P6SM SKC
     FM041800 18010KT P6SM SKC
     FM050400 16006KT 5SM HZ SKC=



000
FTUS46 KLOX 040858 AAB
TAFLAX
TAF AMD
KLAX 040858Z 0409/0512 25006KT P6SM OVC008
     FM041600 24007KT P6SM OVC015
     FM042100 26012KT P6SM SCT015
     FM050300 26010KT P6SM BKN012
     FM050600 VRB04KT 5SM BR OVC010=



000
FTUS46 KLOX 040857 AAB
TAFLGB
TAF AMD
KLGB 040857Z 0409/0506 VRB03KT P6SM SKC
     FM041100 VRB03KT P6SM OVC010
     FM041700 18007KT P6SM BKN015
     FM042100 27008KT P6SM SCT015
     FM050400 VRB03KT 6SM BR BKN010=



000
FTUS46 KLOX 040806 AAA
TAFSMX
TAF AMD
KSMX 040806Z 0408/0506 VRB03KT 5SM BR OVC002
     FM041100 VRB03KT 1/4SM FG VV002
     FM041400 VRB03KT 2SM BR OVC004
     FM041600 VRB03KT 5SM BR OVC007
     FM041900 28008KT P6SM SCT010
     FM042200 29014KT P6SM SKC
     FM050300 31007KT P6SM BKN005=



000
FTUS46 KLOX 040756 AAA
TAFLAX
TAF AMD
KLAX 040756Z 0408/0512 25006KT P6SM OVC010
     FM041600 24007KT P6SM OVC015
     FM042100 26012KT P6SM SCT015
     FM050300 26010KT P6SM BKN012
     FM050600 VRB04KT 5SM BR OVC010=



000
FTUS46 KLOX 040756 AAA
TAFLGB
TAF AMD
KLGB 040756Z 0408/0506 VRB03KT P6SM SKC
     FM040900 VRB03KT P6SM OVC010
     FM041700 18007KT P6SM BKN015
     FM042100 27008KT P6SM SCT015
     FM050400 VRB03KT 6SM BR BKN010=



000
FTUS46 KLOX 040612 CCA
TAFSBA
TAF COR
KSBA 040612Z 0406/0506 VRB03KT P6SM OVC007
     FM041600 VRB03KT 6SM HZ OVC010
     FM041800 20006KT P6SM BKN012
     FM042100 26009KT P6SM SKC
     FM050300 VRB03KT 5SM BR BKN006=



000
FTUS46 KLOX 040543
TAFLAX
TAF
KLAX 040543Z 0406/0512 25007KT P6SM OVC006
     FM041000 VRB03KT 6SM BR OVC010
     FM041600 24007KT P6SM OVC015
     FM042100 26012KT P6SM SCT015
     FM050300 26010KT P6SM BKN012
     FM050600 VRB04KT 5SM BR OVC010=



000
FTUS46 KLOX 040543
TAFSMX
TAF
KSMX 040543Z 0406/0506 VRB03KT 3SM BR OVC002
     FM040800 VRB03KT 1/4SM FG VV002
     FM041400 VRB03KT 2SM BR OVC004
     FM041600 VRB03KT 5SM BR OVC007
     FM041900 28008KT P6SM SCT010
     FM042200 29014KT P6SM SKC
     FM050300 31007KT P6SM BKN005=



000
FTUS46 KLOX 040543
TAFSBP
TAF
KSBP 040543Z 0406/0506 VRB03KT P6SM BKN006
     FM040800 VRB03KT 6SM BR OVC005
     FM041600 VRB03KT 6SM HZ OVC009
     FM041900 28007KT P6SM SCT012
     FM042200 30012KT P6SM SKC
     FM050400 30006KT P6SM BKN005=



000
FTUS46 KLOX 040543
TAFBUR
TAF
KBUR 040543Z 0406/0506 11007KT P6SM SKC
     FM041100 VRB03KT 5SM BR OVC007
     FM041600 14005KT 6SM BR BKN012
     FM041800 18010KT P6SM SKC
     FM050400 16006KT 5SM HZ SKC=



000
FTUS46 KLOX 040543
TAFPRB
TAF
KPRB 040543Z 0406/0506 VRB03KT P6SM SKC
     FM041300 VRB03KT 1/2SM FG VV001
     FM041500 VRB03KT 2SM BR OVC004
     FM041600 VRB03KT P6SM SCT008
     FM041900 22012KT P6SM SKC
     FM042200 22017G25KT P6SM SKC
     FM050400 22010KT P6SM SKC=



000
FTUS46 KLOX 040543
TAFWJF
TAF
KWJF 040543Z 0406/0506 23010KT P6SM SCT200
     FM041200 VRB06KT P6SM SCT200
     FM041700 23012KT P6SM SKC
     FM042200 23020G30KT P6SM SKC
     FM050400 23015KT P6SM SKC=



000
FTUS46 KLOX 040543
TAFPMD
TAF
KPMD 040543Z 0406/0506 22012KT P6SM SCT200
     FM041200 VRB05KT P6SM SCT200
     FM041700 24012KT P6SM SKC
     FM042200 24020G30KT P6SM SKC
     FM050400 24015KT P6SM SKC=



000
FTUS46 KLOX 040543
TAFVNY
TAF
KVNY 040543Z 0406/0506 11006KT P6SM SKC
     FM041100 VRB03KT 5SM BR OVC007
     FM041600 14005KT 6SM BR BKN012
     FM041800 18010KT P6SM SKC
     FM050400 16006KT 5SM HZ SKC=



000
FTUS46 KLOX 040543
TAFSBA
TAF
KSBA 040543Z 0406/0506 VRB03KT P6SM SKC
     FM040700 VRB03KT 5SM HZ OVC007
     FM041600 VRB03KT 6SM HZ OVC010
     FM041800 20006KT P6SM BKN012
     FM042100 26009KT P6SM SKC
     FM050300 VRB03KT 5SM BR BKN006=



000
FTUS46 KLOX 040543
TAFLGB
TAF
KLGB 040543Z 0406/0506 VRB03KT P6SM SKC
     FM040700 VRB03KT P6SM OVC010
     FM041700 18007KT P6SM BKN015
     FM042100 27008KT P6SM SCT015
     FM050400 VRB03KT 6SM BR BKN010=



    US Dept of Commerce
    National Oceanic and Atmospheric Administration
    National Weather Service
    1325 East West Highway
    Silver Spring, MD 20910
    Page Author: NWS Internet Services Team
Disclaimer
Information Quality
Credits
Glossary
Privacy Policy
Freedom of Information Act (FOIA)
About Us
Career Opportunities